Time;durP1;ratioP1;P1;durP2;ratioP2;P2;SDS_P1;SDS_P2;PMS_P1;PMS_P2;Temp;Humidity;BMP_temperature;BMP_pressure;BME280_temperature;BME280_humidity;BME280_pressure;Samples;Min_cycle;Max_cycle;Signal;HPM_P1;HPM_P2
2021/05/19 00:02:08;;;;;;;1.00;0.80;;;9.00;80.40;;;;;;5023064;28;20037;-73
2021/05/19 00:04:34;;;;;;;0.98;0.80;;;9.00;80.60;;;;;;5014155;28;20672;-73
2021/05/19 00:07:00;;;;;;;1.33;0.90;;;9.00;80.50;;;;;;5021116;28;20425;-73
2021/05/19 00:09:26;;;;;;;0.75;0.70;;;8.90;80.90;;;;;;5018609;28;20029;-73
2021/05/19 00:11:51;;;;;;;1.70;1.00;;;8.80;81.10;;;;;;5004241;28;20043;-73
2021/05/19 00:14:19;;;;;;;0.82;0.82;;;8.80;81.20;;;;;;5020449;28;20025;-73
2021/05/19 00:16:46;;;;;;;1.38;1.10;;;8.80;81.30;;;;;;5015599;28;20053;-73
2021/05/19 00:19:12;;;;;;;1.55;1.00;;;8.80;80.90;;;;;;5000842;28;20152;-73
2021/05/19 00:21:38;;;;;;;0.80;0.80;;;8.80;81.50;;;;;;5015260;28;20025;-73
2021/05/19 00:24:05;;;;;;;2.05;0.80;;;8.70;81.50;;;;;;5016352;28;20025;-73
2021/05/19 00:26:30;;;;;;;0.80;0.80;;;8.70;81.80;;;;;;5024042;28;20039;-73
2021/05/19 00:28:56;;;;;;;1.88;0.95;;;8.70;81.80;;;;;;5020376;28;20029;-74
2021/05/19 00:31:24;;;;;;;1.08;1.00;;;8.70;81.70;;;;;;5022940;28;20521;-73
2021/05/19 00:33:50;;;;;;;0.77;0.77;;;8.70;81.70;;;;;;5012926;28;20040;-73
2021/05/19 00:36:16;;;;;;;0.90;0.90;;;8.70;81.30;;;;;;5025325;28;20029;-73
2021/05/19 00:38:41;;;;;;;0.73;0.73;;;8.70;81.80;;;;;;5014370;28;20510;-74
2021/05/19 00:41:09;;;;;;;0.80;0.80;;;8.70;81.50;;;;;;5015636;28;20037;-73
2021/05/19 00:43:35;;;;;;;5.35;0.90;;;8.70;81.60;;;;;;5019765;28;20576;-73
2021/05/19 00:46:01;;;;;;;1.00;0.90;;;8.60;81.30;;;;;;5018778;28;20048;-73
2021/05/19 00:48:27;;;;;;;5.47;1.23;;;8.60;81.40;;;;;;5016567;28;20029;-74
2021/05/19 00:50:52;;;;;;;1.63;1.02;;;8.60;81.50;;;;;;5022965;28;20403;-73
2021/05/19 00:53:18;;;;;;;2.67;0.95;;;8.60;81.50;;;;;;5012664;28;20187;-73
2021/05/19 00:55:44;;;;;;;1.00;0.90;;;8.60;81.60;;;;;;5022844;28;20496;-73
2021/05/19 00:58:09;;;;;;;0.70;0.70;;;8.60;81.80;;;;;;5018325;28;20025;-73
2021/05/19 01:00:36;;;;;;;1.55;1.13;;;8.60;81.60;;;;;;5016012;28;20041;-74
2021/05/19 01:03:03;;;;;;;0.60;0.60;;;8.60;81.40;;;;;;5011834;28;20488;-73
2021/05/19 01:10:40;;;;;;;2.00;1.00;;;8.70;81.80;;;;;;5015763;28;20056;-73
2021/05/19 01:13:06;;;;;;;0.77;0.77;;;8.70;81.50;;;;;;5016339;28;21623;-73
2021/05/19 01:15:33;;;;;;;3.03;1.48;;;8.70;82.20;;;;;;5019245;28;20431;-73
2021/05/19 01:17:59;;;;;;;1.20;1.10;;;8.70;82.10;;;;;;5015891;28;20056;-73
2021/05/19 01:20:25;;;;;;;1.13;1.02;;;8.70;81.70;;;;;;5006847;28;21206;-73
2021/05/19 01:22:50;;;;;;;0.80;0.80;;;8.70;82.40;;;;;;5020583;28;20079;-73
2021/05/19 01:25:16;;;;;;;1.23;1.13;;;8.70;82.20;;;;;;5017386;28;20060;-73
2021/05/19 01:27:42;;;;;;;3.13;1.05;;;8.60;82.70;;;;;;5013942;28;20112;-73
2021/05/19 01:30:09;;;;;;;1.13;0.90;;;8.70;82.10;;;;;;5014939;28;20034;-73
2021/05/19 01:32:35;;;;;;;2.17;1.00;;;8.70;81.90;;;;;;5021475;28;20038;-73
2021/05/19 01:35:01;;;;;;;0.90;0.90;;;8.70;82.20;;;;;;5023309;28;20028;-73
2021/05/19 01:37:26;;;;;;;1.10;1.00;;;8.60;82.30;;;;;;5021193;28;20033;-73
2021/05/19 01:39:52;;;;;;;1.10;1.00;;;8.70;82.50;;;;;;5019330;28;20025;-73
2021/05/19 01:42:18;;;;;;;2.35;1.10;;;8.60;82.50;;;;;;5020582;28;20052;-74
2021/05/19 01:44:44;;;;;;;0.85;0.80;;;8.60;82.80;;;;;;5013372;28;20322;-73
2021/05/19 01:47:10;;;;;;;1.13;1.02;;;8.60;82.90;;;;;;5023337;28;20029;-73
2021/05/19 01:49:41;;;;;;;1.63;1.10;;;8.60;83.30;;;;;;5012608;28;20476;-73
2021/05/19 01:52:08;;;;;;;1.15;0.80;;;8.60;83.30;;;;;;5010944;28;20048;-73
2021/05/19 01:54:36;;;;;;;1.85;1.20;;;8.60;83.10;;;;;;5030643;28;20036;-73
2021/05/19 01:57:02;;;;;;;0.98;0.98;;;8.60;83.60;;;;;;5013332;28;20018;-73
2021/05/19 01:59:28;;;;;;;1.73;1.02;;;8.60;83.40;;;;;;5006099;28;20044;-73
2021/05/19 02:01:53;;;;;;;3.92;1.00;;;8.70;83.50;;;;;;5018379;28;20033;-73
2021/05/19 02:04:19;;;;;;;1.95;1.17;;;8.70;83.20;;;;;;5011114;28;20140;-74
2021/05/19 02:06:56;;;;;;;2.13;1.17;;;8.70;83.30;;;;;;5021494;28;20037;-73
2021/05/19 02:09:23;;;;;;;1.83;1.33;;;8.60;83.60;;;;;;5024213;28;20606;-73
2021/05/19 02:11:50;;;;;;;1.77;1.30;;;8.70;83.80;;;;;;5032958;28;20044;-73
2021/05/19 02:14:18;;;;;;;2.17;1.65;;;8.70;83.80;;;;;;5018676;28;20100;-74
2021/05/19 02:16:44;;;;;;;1.20;1.10;;;8.70;83.60;;;;;;5016428;28;20033;-74
2021/05/19 02:19:11;;;;;;;1.15;1.15;;;8.70;83.50;;;;;;5013376;28;20504;-73
2021/05/19 02:21:41;;;;;;;2.88;1.58;;;8.70;83.70;;;;;;5012268;28;20084;-73
2021/05/19 02:24:08;;;;;;;4.93;1.20;;;8.60;83.70;;;;;;5014879;28;20045;-73
2021/05/19 02:26:34;;;;;;;1.30;1.08;;;8.70;84.10;;;;;;5017156;28;20381;-73
2021/05/19 02:29:00;;;;;;;2.15;1.38;;;8.70;83.70;;;;;;5018079;28;20030;-73
2021/05/19 02:31:25;;;;;;;1.95;1.20;;;8.60;83.50;;;;;;5033206;28;20033;-73
2021/05/19 02:33:51;;;;;;;1.00;1.00;;;8.60;83.40;;;;;;5016848;28;20063;-73
2021/05/19 02:36:17;;;;;;;1.42;1.30;;;8.70;83.40;;;;;;5019522;28;20021;-73
2021/05/19 02:38:42;;;;;;;2.20;1.35;;;8.70;83.30;;;;;;5036682;28;20021;-73
2021/05/19 02:41:08;;;;;;;3.60;1.30;;;8.70;82.50;;;;;;5027141;28;20037;-73
2021/05/19 02:43:33;;;;;;;3.08;1.23;;;8.70;83.20;;;;;;5019120;28;20380;-74
2021/05/19 02:45:59;;;;;;;4.00;1.67;;;8.70;83.00;;;;;;5019483;28;20041;-73
2021/05/19 02:48:25;;;;;;;1.13;1.13;;;8.70;83.20;;;;;;5019169;28;20041;-74
2021/05/19 02:50:50;;;;;;;2.72;1.30;;;8.70;83.00;;;;;;5018438;28;20041;-73
2021/05/19 02:53:16;;;;;;;1.85;1.40;;;8.70;83.20;;;;;;5023181;28;20053;-73
2021/05/19 02:55:42;;;;;;;3.15;1.35;;;8.80;83.10;;;;;;5017266;28;20029;-73
2021/05/19 02:58:08;;;;;;;1.83;1.40;;;8.80;83.00;;;;;;5023483;28;20159;-74
2021/05/19 03:00:33;;;;;;;1.63;1.10;;;8.80;83.10;;;;;;5019064;28;20096;-74
2021/05/19 03:02:59;;;;;;;1.95;1.40;;;8.80;82.90;;;;;;5018725;28;20052;-73
2021/05/19 03:05:25;;;;;;;1.45;1.35;;;8.80;82.90;;;;;;5020299;28;20021;-73
2021/05/19 03:07:50;;;;;;;2.03;1.30;;;8.80;83.00;;;;;;5023137;28;20040;-73
2021/05/19 03:10:16;;;;;;;1.63;1.30;;;8.80;83.10;;;;;;5022534;28;20036;-73
2021/05/19 03:12:43;;;;;;;1.65;1.40;;;8.80;83.10;;;;;;5023510;28;20030;-74
2021/05/19 03:15:10;;;;;;;2.38;1.50;;;8.80;83.20;;;;;;5017905;28;20029;-73
2021/05/19 03:17:36;;;;;;;1.60;1.40;;;8.80;83.20;;;;;;5025086;28;20055;-73
2021/05/19 03:20:04;;;;;;;1.40;1.30;;;8.80;83.30;;;;;;5012500;28;20744;-73
2021/05/19 03:22:30;;;;;;;1.75;1.65;;;8.90;83.60;;;;;;5025509;28;20037;-73
2021/05/19 03:24:55;;;;;;;1.25;1.20;;;8.90;83.60;;;;;;5012099;28;20038;-73
2021/05/19 03:27:21;;;;;;;1.85;1.65;;;8.90;83.60;;;;;;5011472;28;20033;-73
2021/05/19 03:29:47;;;;;;;2.28;1.40;;;8.90;83.60;;;;;;5010026;28;20037;-73
2021/05/19 03:32:13;;;;;;;1.40;1.30;;;8.90;83.80;;;;;;5010810;28;20761;-74
2021/05/19 03:34:38;;;;;;;3.72;1.70;;;8.90;83.60;;;;;;5012544;28;20026;-73
2021/05/19 03:37:04;;;;;;;2.05;1.58;;;8.90;84.10;;;;;;5011191;28;20163;-73
2021/05/19 03:39:30;;;;;;;4.40;1.60;;;8.90;84.80;;;;;;5015765;28;20515;-73
2021/05/19 03:41:56;;;;;;;1.67;1.58;;;8.90;85.20;;;;;;5007682;28;20025;-73
2021/05/19 03:44:22;;;;;;;2.42;1.40;;;8.90;84.90;;;;;;5014658;28;20030;-74
2021/05/19 03:46:49;;;;;;;1.50;1.30;;;8.80;84.80;;;;;;5016708;28;20033;-73
2021/05/19 03:49:14;;;;;;;1.50;1.40;;;8.80;85.30;;;;;;5015519;28;20563;-74
2021/05/19 03:51:40;;;;;;;3.05;1.42;;;8.80;85.80;;;;;;5016352;28;20044;-73
2021/05/19 03:54:06;;;;;;;1.45;1.35;;;8.80;86.10;;;;;;5017142;28;20340;-73
2021/05/19 03:56:33;;;;;;;1.92;1.40;;;8.80;86.70;;;;;;5018359;28;20122;-73
2021/05/19 03:58:59;;;;;;;2.22;1.50;;;8.70;87.10;;;;;;5008573;28;20068;-73
2021/05/19 04:01:24;;;;;;;1.50;1.40;;;8.70;87.30;;;;;;5012954;28;20133;-73
2021/05/19 04:03:51;;;;;;;2.22;1.60;;;8.70;87.30;;;;;;5019071;28;20079;-73
2021/05/19 04:06:22;;;;;;;3.40;1.80;;;8.70;87.30;;;;;;5012448;28;20053;-73
2021/05/19 04:08:47;;;;;;;2.15;1.40;;;8.80;87.10;;;;;;5016858;28;20504;-74
2021/05/19 04:11:13;;;;;;;3.67;2.10;;;8.80;87.10;;;;;;5018894;28;20032;-73
2021/05/19 04:13:39;;;;;;;1.95;1.60;;;8.80;87.10;;;;;;5010787;28;20026;-73
2021/05/19 04:16:05;;;;;;;1.73;1.60;;;8.80;86.70;;;;;;5008304;28;20033;-74
2021/05/19 04:18:31;;;;;;;1.65;1.40;;;8.80;86.70;;;;;;5010565;28;20025;-73
2021/05/19 04:20:56;;;;;;;1.52;1.30;;;8.80;87.10;;;;;;5004929;28;20060;-73
2021/05/19 04:23:22;;;;;;;2.28;1.55;;;8.80;87.30;;;;;;5014118;28;20033;-74
2021/05/19 04:25:48;;;;;;;1.80;1.55;;;8.80;87.30;;;;;;5009195;28;20459;-74
2021/05/19 04:28:14;;;;;;;2.13;1.83;;;8.80;87.20;;;;;;5012378;28;20033;-73
2021/05/19 04:30:40;;;;;;;1.77;1.60;;;8.80;86.80;;;;;;5014686;28;20048;-73
2021/05/19 04:33:05;;;;;;;2.05;1.88;;;8.80;87.20;;;;;;5009768;28;20025;-74
2021/05/19 04:35:33;;;;;;;2.75;1.80;;;8.80;87.10;;;;;;5014917;28;20144;-74
2021/05/19 04:38:00;;;;;;;1.70;1.50;;;8.90;87.60;;;;;;5014591;28;20025;-73
2021/05/19 04:40:25;;;;;;;1.67;1.58;;;8.90;87.50;;;;;;5016114;28;20160;-73
2021/05/19 04:42:51;;;;;;;1.95;1.80;;;8.90;87.60;;;;;;5007521;28;20029;-73
2021/05/19 04:45:17;;;;;;;2.85;1.75;;;8.90;87.90;;;;;;5014861;28;20087;-73
2021/05/19 04:47:43;;;;;;;2.05;1.73;;;8.90;87.60;;;;;;5009989;28;20699;-74
2021/05/19 04:50:09;;;;;;;1.73;1.63;;;8.90;87.90;;;;;;5012111;28;20045;-73
2021/05/19 04:52:36;;;;;;;3.35;1.88;;;8.90;87.90;;;;;;5018939;28;20769;-73
2021/05/19 04:55:04;;;;;;;3.92;1.70;;;8.90;87.90;;;;;;5012175;28;20088;-74
2021/05/19 04:57:30;;;;;;;5.07;2.10;;;8.80;87.50;;;;;;5019417;28;20384;-73
2021/05/19 04:59:56;;;;;;;2.08;1.55;;;8.80;88.20;;;;;;5018373;28;20040;-73
2021/05/19 05:02:21;;;;;;;3.33;1.55;;;8.80;88.10;;;;;;5021108;28;20066;-73
2021/05/19 05:04:47;;;;;;;3.40;1.88;;;8.80;87.90;;;;;;5009421;28;20395;-73
2021/05/19 05:07:13;;;;;;;1.80;1.67;;;8.80;88.30;;;;;;5014941;28;20034;-73
2021/05/19 05:09:38;;;;;;;1.88;1.77;;;8.80;88.20;;;;;;5016307;28;20032;-73
2021/05/19 05:12:04;;;;;;;2.40;2.20;;;8.80;88.80;;;;;;5021685;28;20052;-73
2021/05/19 05:14:30;;;;;;;1.85;1.70;;;8.90;89.10;;;;;;5019165;28;20032;-73
2021/05/19 05:16:55;;;;;;;5.97;2.10;;;8.90;87.90;;;;;;5016236;28;20025;-74
2021/05/19 05:19:21;;;;;;;3.45;2.30;;;8.90;88.90;;;;;;5008107;28;20586;-74
2021/05/19 05:21:46;;;;;;;5.10;1.92;;;8.90;88.70;;;;;;5021749;28;20083;-73
2021/05/19 05:24:12;;;;;;;4.72;2.20;;;8.90;88.50;;;;;;5020312;28;20464;-74
2021/05/19 05:26:38;;;;;;;2.85;2.10;;;8.90;88.60;;;;;;5013550;28;20013;-73
2021/05/19 05:29:04;;;;;;;2.53;2.17;;;9.00;88.10;;;;;;5014226;28;20170;-73
2021/05/19 05:31:29;;;;;;;3.42;2.42;;;8.90;88.70;;;;;;5011355;28;20314;-74
2021/05/19 05:33:55;;;;;;;2.17;2.00;;;9.00;88.80;;;;;;5014711;28;20022;-73
2021/05/19 05:36:20;;;;;;;3.08;2.05;;;9.00;88.50;;;;;;5009538;28;20111;-73
2021/05/19 05:38:46;;;;;;;2.72;2.28;;;9.10;89.10;;;;;;5007234;28;20030;-73
2021/05/19 05:41:12;;;;;;;2.60;2.30;;;9.20;89.00;;;;;;5015960;28;20025;-73
2021/05/19 05:43:37;;;;;;;5.30;2.10;;;9.20;88.10;;;;;;5017296;28;20072;-74
2021/05/19 05:46:03;;;;;;;3.22;2.30;;;9.20;88.10;;;;;;5012470;28;20034;-73
2021/05/19 05:48:29;;;;;;;3.25;2.20;;;9.20;88.70;;;;;;5021471;28;20033;-73
2021/05/19 05:50:55;;;;;;;4.22;3.03;;;9.20;87.50;;;;;;5014070;28;20031;-73
2021/05/19 05:53:21;;;;;;;4.50;2.97;;;9.20;88.60;;;;;;5017967;28;20404;-74
2021/05/19 05:55:46;;;;;;;2.67;2.10;;;9.20;88.60;;;;;;5017426;28;20037;-73
2021/05/19 05:58:13;;;;;;;3.15;2.25;;;9.20;88.50;;;;;;5018636;28;20138;-73
2021/05/19 06:00:38;;;;;;;2.97;2.67;;;9.30;88.30;;;;;;5007990;28;20036;-74
2021/05/19 06:03:06;;;;;;;2.97;2.50;;;9.20;86.70;;;;;;5008130;28;20030;-73
2021/05/19 06:05:32;;;;;;;3.55;2.60;;;9.20;87.50;;;;;;5014042;28;20026;-73
2021/05/19 06:08:01;;;;;;;2.72;2.50;;;9.30;88.00;;;;;;5020549;28;20687;-73
2021/05/19 06:10:26;;;;;;;3.20;2.45;;;9.30;87.40;;;;;;5021044;28;20600;-73
2021/05/19 06:12:52;;;;;;;2.55;2.35;;;9.30;87.80;;;;;;5017313;28;20041;-73
2021/05/19 06:15:18;;;;;;;2.75;2.30;;;9.30;87.40;;;;;;5019382;28;20044;-74
2021/05/19 06:17:43;;;;;;;4.53;2.20;;;9.40;87.40;;;;;;5020933;28;20648;-73
2021/05/19 06:20:09;;;;;;;3.47;2.55;;;9.40;87.20;;;;;;5014370;28;20067;-73
2021/05/19 06:22:35;;;;;;;3.03;2.30;;;9.50;88.20;;;;;;5015272;28;20072;-73
2021/05/19 06:25:01;;;;;;;3.35;2.60;;;9.50;87.10;;;;;;5026483;28;20108;-74
2021/05/19 06:27:26;;;;;;;2.97;2.08;;;9.50;87.00;;;;;;5024339;28;22600;-73
2021/05/19 06:29:52;;;;;;;5.45;2.75;;;9.60;87.30;;;;;;5028845;28;20552;-74
2021/05/19 06:32:18;;;;;;;3.28;2.40;;;9.60;87.30;;;;;;5022950;28;20049;-73
2021/05/19 06:34:43;;;;;;;2.28;1.88;;;9.60;85.00;;;;;;5032373;28;20021;-73
2021/05/19 06:37:09;;;;;;;5.00;2.22;;;9.60;85.70;;;;;;5025053;28;20080;-74
2021/05/19 06:39:34;;;;;;;3.28;2.40;;;9.60;85.00;;;;;;5025114;28;20049;-74
2021/05/19 06:42:00;;;;;;;2.30;2.10;;;9.50;84.40;;;;;;5016163;28;20767;-73
2021/05/19 06:44:26;;;;;;;2.42;2.22;;;9.50;84.90;;;;;;5023255;28;20068;-74
2021/05/19 06:46:52;;;;;;;3.60;2.50;;;9.60;85.90;;;;;;5032865;28;20124;-73
2021/05/19 06:49:18;;;;;;;3.05;2.22;;;9.60;86.30;;;;;;5025724;28;20034;-73
2021/05/19 06:51:45;;;;;;;2.80;2.50;;;9.60;84.60;;;;;;5025999;28;20120;-73
2021/05/19 06:54:11;;;;;;;5.28;2.53;;;9.60;85.60;;;;;;5016489;28;20045;-73
2021/05/19 06:56:42;;;;;;;3.05;2.50;;;9.70;85.50;;;;;;5019383;28;20045;-73
2021/05/19 06:59:09;;;;;;;3.08;2.63;;;9.70;84.30;;;;;;5023557;28;20025;-73
2021/05/19 07:01:34;;;;;;;2.53;2.25;;;9.70;85.70;;;;;;5023384;28;20431;-74
2021/05/19 07:04:00;;;;;;;3.53;2.53;;;9.80;85.20;;;;;;5022252;28;20036;-73
2021/05/19 07:06:27;;;;;;;3.00;2.60;;;9.80;84.80;;;;;;5023884;28;20544;-75
2021/05/19 07:08:52;;;;;;;3.90;2.63;;;9.80;83.80;;;;;;5025164;28;20029;-73
2021/05/19 07:11:18;;;;;;;3.17;2.65;;;9.90;84.50;;;;;;5022576;28;20053;-73
2021/05/19 07:13:44;;;;;;;3.13;2.58;;;9.90;82.60;;;;;;5023878;28;20052;-73
2021/05/19 07:16:11;;;;;;;2.72;2.40;;;9.90;83.00;;;;;;5034535;28;20021;-73
2021/05/19 07:18:37;;;;;;;3.72;2.70;;;10.00;84.30;;;;;;5024525;28;20025;-73
2021/05/19 07:21:03;;;;;;;4.38;2.50;;;10.10;83.60;;;;;;5024138;28;20032;-73
2021/05/19 07:23:28;;;;;;;2.60;2.38;;;10.10;82.00;;;;;;5019225;28;20396;-74
2021/05/19 07:25:54;;;;;;;3.85;2.55;;;10.10;82.50;;;;;;5020445;28;20037;-73
2021/05/19 07:28:20;;;;;;;3.58;2.63;;;10.10;83.00;;;;;;5026017;28;20522;-73
2021/05/19 07:30:47;;;;;;;4.05;2.53;;;10.10;82.80;;;;;;5026323;28;20116;-74
2021/05/19 07:33:14;;;;;;;2.83;2.50;;;10.10;81.10;;;;;;5021931;28;20041;-73
2021/05/19 07:35:41;;;;;;;4.00;2.65;;;10.20;81.90;;;;;;5020097;28;20060;-73
2021/05/19 07:38:10;;;;;;;4.05;3.05;;;10.20;80.60;;;;;;5010282;28;20038;-74
2021/05/19 07:40:36;;;;;;;6.72;3.58;;;10.20;81.90;;;;;;5010821;28;20029;-74
2021/05/19 07:43:02;;;;;;;4.00;3.20;;;10.20;80.30;;;;;;5014846;28;20389;-73
2021/05/19 07:45:28;;;;;;;3.83;3.28;;;10.20;82.20;;;;;;5025006;28;20073;-73
2021/05/19 07:47:54;;;;;;;5.45;3.30;;;10.20;82.80;;;;;;5014347;28;20099;-73
2021/05/19 07:50:20;;;;;;;4.35;3.30;;;10.20;83.40;;;;;;5018657;28;20630;-73
2021/05/19 07:52:46;;;;;;;3.95;3.30;;;10.20;82.40;;;;;;5022628;28;20026;-73
2021/05/19 07:55:23;;;;;;;3.47;3.15;;;10.30;82.30;;;;;;5019527;28;20021;-74
2021/05/19 07:57:54;;;;;;;3.38;3.05;;;10.30;83.10;;;;;;5014466;28;20396;-73
2021/05/19 08:03:02;;;;;;;5.32;3.63;;;10.40;82.20;;;;;;5020911;28;20033;-73
2021/05/19 08:05:28;;;;;;;5.65;3.97;;;10.40;79.20;;;;;;5024523;28;20040;-74
2021/05/19 08:07:54;;;;;;;4.68;3.95;;;10.40;80.00;;;;;;5021907;28;20124;-74
2021/05/19 08:10:21;;;;;;;4.88;3.95;;;10.40;80.50;;;;;;5017250;28;20037;-74
2021/05/19 08:12:47;;;;;;;4.70;4.25;;;10.50;79.50;;;;;;5021465;28;20018;-73
2021/05/19 08:15:13;;;;;;;6.25;4.38;;;10.60;78.60;;;;;;5020763;28;20025;-74
2021/05/19 08:17:38;;;;;;;3.97;3.58;;;10.70;80.10;;;;;;5021360;28;20434;-73
2021/05/19 08:20:05;;;;;;;5.45;3.88;;;10.90;79.80;;;;;;5016427;28;20988;-73
2021/05/19 08:22:31;;;;;;;5.45;3.67;;;11.00;80.40;;;;;;5022957;28;20033;-73
2021/05/19 08:24:56;;;;;;;6.35;4.00;;;11.10;78.30;;;;;;5020665;28;20044;-74
2021/05/19 08:27:22;;;;;;;4.57;3.40;;;11.20;77.10;;;;;;5020645;28;20053;-74
2021/05/19 08:29:48;;;;;;;3.95;3.40;;;11.20;77.70;;;;;;5015374;28;20475;-74
2021/05/19 08:32:14;;;;;;;4.18;3.78;;;11.20;75.40;;;;;;5020929;28;20092;-74
2021/05/19 08:34:41;;;;;;;5.32;3.65;;;11.20;75.50;;;;;;5022239;28;20026;-74
2021/05/19 08:37:06;;;;;;;5.95;4.00;;;11.30;76.10;;;;;;5023524;28;20430;-74
2021/05/19 08:39:32;;;;;;;4.63;3.92;;;11.30;73.40;;;;;;5017422;28;20029;-74
2021/05/19 08:41:57;;;;;;;5.85;4.18;;;11.20;72.90;;;;;;5017204;28;20464;-73
2021/05/19 08:44:24;;;;;;;5.38;3.85;;;11.20;74.90;;;;;;5019242;28;20026;-74
2021/05/19 08:46:56;;;;;;;4.75;4.22;;;11.20;75.30;;;;;;5022050;28;20108;-72
2021/05/19 08:49:23;;;;;;;4.25;3.72;;;11.20;75.30;;;;;;5039465;28;20081;-74
2021/05/19 08:51:49;;;;;;;5.35;3.78;;;11.20;75.70;;;;;;5023498;28;20510;-73
2021/05/19 08:54:17;;;;;;;5.05;4.03;;;11.20;76.80;;;;;;5019522;28;20080;-73
2021/05/19 08:56:48;;;;;;;4.30;3.88;;;11.30;73.90;;;;;;5024528;28;20496;-74
2021/05/19 08:59:15;;;;;;;5.20;3.78;;;11.40;75.50;;;;;;5022765;28;21867;-74
2021/05/19 09:01:46;;;;;;;5.20;3.92;;;11.60;74.40;;;;;;5024145;28;20049;-74
2021/05/19 09:04:16;;;;;;;6.45;3.88;;;11.90;73.40;;;;;;5021820;28;20026;-73
2021/05/19 09:06:42;;;;;;;4.45;4.03;;;12.00;73.20;;;;;;5026846;28;20017;-73
2021/05/19 09:09:30;;;;;;;4.35;3.45;;;12.00;72.60;;;;;;5016955;28;20052;-73
2021/05/19 09:12:08;;;;;;;5.05;3.88;;;12.00;71.10;;;;;;5028150;28;20053;-73
2021/05/19 09:14:37;;;;;;;;;;;11.80;69.70;;;;;;5017997;28;20515;-73
2021/05/19 09:17:26;;;;;;;4.35;3.63;;;11.70;70.20;;;;;;5021446;28;19909;-73
2021/05/19 09:20:13;;;;;;;4.25;3.80;;;11.80;74.40;;;;;;5017443;28;20092;-73
2021/05/19 09:22:45;;;;;;;4.93;4.07;;;12.00;71.90;;;;;;5024674;28;20512;-73
2021/05/19 09:25:22;;;;;;;3.97;3.45;;;12.20;73.40;;;;;;5018723;28;20104;-74
2021/05/19 09:27:50;;;;;;;5.68;4.38;;;12.30;67.50;;;;;;5023037;28;20026;-73
2021/05/19 09:30:37;;;;;;;5.05;4.15;;;12.40;67.60;;;;;;5034742;28;20021;-74
2021/05/19 09:33:21;;;;;;;5.10;4.20;;;12.50;65.30;;;;;;5018507;28;20029;-74
2021/05/19 09:36:07;;;;;;;6.75;4.20;;;12.40;66.50;;;;;;5017999;28;20018;-74
2021/05/19 09:38:33;;;;;;;4.28;3.83;;;12.40;69.30;;;;;;5024089;28;20496;-75
2021/05/19 09:41:28;;;;;;;5.78;4.15;;;12.60;66.70;;;;;;5020073;28;20028;-73
2021/05/19 09:43:57;;;;;;;6.00;3.65;;;12.60;65.50;;;;;;5019042;28;20590;-74
2021/05/19 09:49:14;;;;;;;4.47;4.07;;;12.60;67.30;;;;;;5027661;28;20036;-73
2021/05/19 09:51:43;;;;;;;5.05;4.32;;;12.60;66.90;;;;;;5027558;28;20028;-74
2021/05/19 09:54:28;;;;;;;4.60;4.20;;;12.30;69.00;;;;;;5025769;28;20018;-74
2021/05/19 09:57:02;;;;;;;5.50;4.15;;;12.10;68.80;;;;;;5022531;28;20045;-72
2021/05/19 09:59:29;;;;;;;4.60;3.90;;;11.90;69.70;;;;;;5023550;28;20117;-74
2021/05/19 10:01:57;;;;;;;4.63;4.03;;;11.90;70.80;;;;;;5023546;28;20044;-74
2021/05/19 10:04:28;;;;;;;6.18;4.60;;;11.80;72.60;;;;;;5021010;28;20017;-73
2021/05/19 10:06:54;;;;;;;5.60;4.40;;;11.90;73.10;;;;;;5038548;28;20026;-74
2021/05/19 10:09:20;;;;;;;7.07;4.78;;;12.30;74.40;;;;;;5021984;28;20026;-74
2021/05/19 10:11:46;;;;;;;5.40;4.70;;;12.50;75.00;;;;;;5026246;28;20383;-73
2021/05/19 10:14:15;;;;;;;5.63;4.05;;;12.50;70.10;;;;;;5012270;28;20056;-74
2021/05/19 10:16:44;;;;;;;5.00;4.15;;;12.50;69.20;;;;;;5022844;28;20064;-73
2021/05/19 10:19:14;;;;;;;4.57;3.85;;;12.40;69.10;;;;;;5019182;28;20060;-74
2021/05/19 10:21:41;;;;;;;5.22;3.83;;;12.30;69.30;;;;;;5019353;28;20080;-74
2021/05/19 10:24:10;;;;;;;5.45;3.92;;;12.20;68.90;;;;;;5022505;28;20026;-74
2021/05/19 10:27:05;;;;;;;4.32;3.90;;;12.10;70.10;;;;;;5021128;28;20136;-73
2021/05/19 10:29:49;;;;;;;5.45;4.43;;;12.30;70.50;;;;;;5037507;28;20033;-73
2021/05/19 10:32:26;;;;;;;6.38;4.30;;;12.60;72.10;;;;;;5013605;28;20045;-74
2021/05/19 10:35:03;;;;;;;5.25;3.50;;;12.80;70.30;;;;;;5012257;28;20116;-73
2021/05/19 10:37:29;;;;;;;3.10;1.73;;;12.80;68.40;;;;;;5012121;28;20037;-74
2021/05/19 10:40:27;;;;;;;4.80;1.98;;;12.20;67.40;;;;;;5017767;28;20867;-74
2021/05/19 10:42:55;;;;;;;4.85;1.35;;;11.00;68.00;;;;;;5025573;28;20041;-74
2021/05/19 10:45:21;;;;;;;1.50;1.40;;;10.00;71.10;;;;;;5021414;28;20053;-73
2021/05/19 10:47:48;;;;;;;1.40;1.30;;;9.50;73.10;;;;;;5017149;28;20033;-73
2021/05/19 10:58:53;;;;;;;3.00;1.52;;;9.20;77.50;;;;;;5026210;28;20435;-74
2021/05/19 11:01:42;;;;;;;1.30;1.23;;;9.30;75.80;;;;;;5020688;28;20045;-74
2021/05/19 11:04:16;;;;;;;1.80;1.63;;;9.40;75.60;;;;;;5023130;28;20029;-73
2021/05/19 11:06:57;;;;;;;1.83;1.73;;;9.50;80.10;;;;;;5022339;28;20109;-73
2021/05/19 11:09:25;;;;;;;1.80;1.70;;;9.60;80.50;;;;;;5037620;28;20033;-73
2021/05/19 11:11:51;;;;;;;2.10;1.50;;;9.70;79.50;;;;;;5018857;28;20112;-73
2021/05/19 11:14:44;;;;;;;1.35;1.25;;;9.90;80.80;;;;;;5015482;28;20033;-73
2021/05/19 11:19:38;;;;;;;2.58;1.40;;;10.10;81.00;;;;;;5022399;28;20029;-73
2021/05/19 11:22:15;;;;;;;1.50;1.27;;;10.20;79.00;;;;;;5037680;28;20048;-74
2021/05/19 11:24:57;;;;;;;2.30;1.80;;;10.30;78.10;;;;;;5016786;28;20391;-74
2021/05/19 11:27:26;;;;;;;2.78;1.58;;;10.40;78.70;;;;;;5034418;28;20099;-74
2021/05/19 11:29:51;;;;;;;1.80;1.70;;;10.50;78.20;;;;;;5020958;28;20026;-73
2021/05/19 11:32:19;;;;;;;1.67;1.50;;;10.50;78.80;;;;;;5019152;28;20053;-74
2021/05/19 11:34:46;;;;;;;4.05;2.00;;;10.60;80.80;;;;;;5018617;28;20047;-74
2021/05/19 11:37:15;;;;;;;3.05;2.40;;;10.70;82.00;;;;;;5014774;28;20048;-73
2021/05/19 11:39:46;;;;;;;;;;;10.70;77.80;;;;;;5013176;28;20072;-74
2021/05/19 11:42:16;;;;;;;4.25;2.80;;;10.70;79.10;;;;;;5012916;28;19909;-73
2021/05/19 11:45:02;;;;;;;4.13;2.65;;;10.70;79.20;;;;;;5026518;28;20018;-73
2021/05/19 11:47:28;;;;;;;3.75;2.83;;;10.70;81.50;;;;;;5023386;28;20029;-74
2021/05/19 11:50:32;;;;;;;2.35;2.22;;;10.70;81.30;;;;;;5019285;28;20322;-74
2021/05/19 11:53:05;;;;;;;2.47;2.28;;;10.70;82.20;;;;;;5015293;28;20045;-74
2021/05/19 11:55:41;;;;;;;2.47;2.28;;;10.80;83.50;;;;;;5023050;28;20775;-73
2021/05/19 11:58:30;;;;;;;4.75;2.58;;;10.90;81.50;;;;;;5015906;28;20064;-73
2021/05/19 12:01:03;;;;;;;2.28;1.85;;;11.10;80.20;;;;;;5020854;28;20091;-74
2021/05/19 12:03:31;;;;;;;2.10;1.77;;;11.50;85.00;;;;;;5017835;28;20057;-74
2021/05/19 12:06:00;;;;;;;1.90;1.80;;;11.80;79.20;;;;;;5023766;28;20079;-74
2021/05/19 12:08:29;;;;;;;1.50;1.40;;;12.00;76.50;;;;;;5019269;28;20097;-73
2021/05/19 12:11:04;;;;;;;1.35;1.35;;;12.00;74.40;;;;;;5017392;28;20033;-73
2021/05/19 12:13:31;;;;;;;2.15;1.90;;;12.00;71.30;;;;;;5018659;28;20030;-73
2021/05/19 12:15:57;;;;;;;5.38;1.77;;;12.10;72.50;;;;;;5022050;28;20014;-73
2021/05/19 12:18:23;;;;;;;1.85;1.65;;;12.10;75.00;;;;;;5023416;28;20025;-74
2021/05/19 12:20:49;;;;;;;3.17;1.70;;;12.10;74.70;;;;;;5024391;28;20030;-74
2021/05/19 12:23:15;;;;;;;2.33;2.05;;;11.90;74.20;;;;;;5021912;28;20044;-73
2021/05/19 12:25:44;;;;;;;2.50;1.73;;;12.00;75.70;;;;;;5022340;28;20033;-74
2021/05/19 12:28:19;;;;;;;1.90;1.70;;;12.10;74.60;;;;;;5021370;28;20026;-74
2021/05/19 12:30:47;;;;;;;2.03;1.83;;;12.20;76.40;;;;;;5015698;28;20044;-74
2021/05/19 12:33:15;;;;;;;9.65;1.58;;;12.30;74.10;;;;;;5018026;28;20033;-74
2021/05/19 12:35:45;;;;;;;1.10;1.10;;;12.50;73.40;;;;;;5023246;28;20107;-73
2021/05/19 12:38:11;;;;;;;1.23;1.23;;;12.50;70.40;;;;;;5023363;28;20055;-73
2021/05/19 12:40:39;;;;;;;1.10;1.05;;;12.60;71.80;;;;;;5021744;28;20351;-74
2021/05/19 12:43:10;;;;;;;1.35;1.15;;;12.50;66.40;;;;;;5020923;28;20148;-74
2021/05/19 12:45:38;;;;;;;1.15;1.05;;;12.50;67.40;;;;;;5023222;28;20041;-74
2021/05/19 12:48:17;;;;;;;1.02;1.00;;;12.70;69.10;;;;;;5018576;28;21012;-73
2021/05/19 12:50:53;;;;;;;0.95;0.95;;;12.80;68.80;;;;;;5017841;28;20049;-74
2021/05/19 12:53:52;;;;;;;1.10;1.00;;;12.90;68.30;;;;;;5017008;28;20022;-73
2021/05/19 12:56:26;;;;;;;0.80;0.80;;;12.90;67.10;;;;;;5022536;28;20053;-73
2021/05/19 12:59:06;;;;;;;0.85;0.85;;;12.90;66.70;;;;;;5026180;28;20108;-74
2021/05/19 13:01:52;;;;;;;1.30;0.93;;;12.80;66.50;;;;;;5021591;28;20512;-74
2021/05/19 13:04:22;;;;;;;0.73;0.73;;;12.80;65.40;;;;;;5019339;28;20034;-74
2021/05/19 13:06:56;;;;;;;1.00;1.00;;;12.70;66.30;;;;;;5024308;28;20095;-74
2021/05/19 13:09:26;;;;;;;1.20;1.20;;;12.70;68.90;;;;;;5018241;28;20499;-73
2021/05/19 13:12:04;;;;;;;3.10;1.17;;;12.60;69.40;;;;;;5020519;28;20159;-74
2021/05/19 13:14:43;;;;;;;5.13;1.45;;;12.60;71.20;;;;;;5021751;28;20104;-74
2021/05/19 13:17:59;;;;;;;1.88;1.60;;;12.50;71.90;;;;;;5023765;28;20030;-74
2021/05/19 13:20:26;;;;;;;1.50;1.40;;;12.50;73.20;;;;;;5019374;28;20052;-73
2021/05/19 13:22:59;;;;;;;1.50;1.25;;;12.50;73.80;;;;;;5024798;28;20029;-73